createdAt,value
2022-08-30T05:23:17.370Z,17.32
2022-08-30T05:34:02.554Z,17.13
2022-08-30T05:44:25.833Z,17.09
2022-08-30T05:55:07.659Z,17.09
2022-08-30T06:05:41.997Z,17.01
2022-08-30T06:16:32.761Z,17.11
2022-08-30T06:27:02.701Z,17.38
2022-08-30T06:37:46.512Z,17.43
2022-08-30T06:58:11.171Z,17.68
2022-08-30T07:08:56.239Z,17.97
2022-08-30T07:19:21.356Z,18.08
2022-08-30T07:29:52.594Z,18.29
2022-08-30T07:40:15.051Z,18.85
2022-08-30T07:50:39.871Z,19.16
2022-08-30T08:01:03.799Z,19.54
2022-08-30T08:11:34.625Z,19.62
2022-08-30T08:22:20.581Z,19.74
2022-08-30T08:32:52.446Z,20.08
2022-08-30T08:43:19.552Z,20.38
2022-08-30T08:53:46.638Z,20.40
2022-08-30T09:04:32.041Z,20.69
2022-08-30T09:14:55.938Z,20.71
2022-08-30T09:25:32.927Z,20.52
2022-08-30T09:36:16.829Z,20.40
2022-08-30T09:47:03.499Z,20.54
2022-08-30T09:58:10.657Z,20.50
2022-08-30T10:08:56.639Z,20.66
2022-08-30T10:19:21.758Z,20.86
2022-08-30T10:29:59.649Z,20.84
2022-08-30T10:40:34.103Z,20.57
2022-08-30T10:50:57.854Z,20.63
2022-08-30T11:12:39.422Z,20.77
2022-08-30T11:23:23.407Z,20.87
2022-08-30T11:33:52.353Z,20.85
2022-08-30T11:44:42.258Z,20.84
2022-08-30T11:55:06.889Z,21.03
2022-08-30T12:05:58.920Z,21.16
2022-08-30T12:16:22.885Z,21.34
2022-08-30T12:26:41.283Z,21.57
2022-08-30T12:37:25.283Z,21.72
2022-08-30T12:47:59.474Z,21.61
2022-08-30T12:58:32.763Z,21.42
2022-08-30T13:09:42.720Z,21.25
2022-08-30T13:20:49.770Z,21.16
2022-08-30T13:31:29.089Z,21.01
2022-08-30T13:41:44.606Z,20.91
2022-08-30T13:52:09.729Z,20.86
2022-08-30T14:02:22.211Z,20.90
2022-08-30T14:23:02.035Z,21.16
2022-08-30T14:33:27.187Z,21.18
2022-08-30T14:43:33.790Z,21.10
2022-08-30T14:53:40.647Z,21.05
2022-08-30T15:03:51.310Z,21.01
2022-08-30T15:13:57.817Z,20.87
2022-08-30T15:24:11.501Z,20.66
2022-08-30T15:34:29.059Z,20.50
2022-08-30T15:44:42.887Z,20.47
2022-08-30T15:54:52.216Z,20.42
2022-08-30T16:05:15.919Z,20.38
2022-08-30T16:15:31.455Z,20.26
2022-08-30T16:25:47.379Z,20.10
2022-08-30T16:36:10.946Z,19.83
2022-08-30T16:46:53.979Z,19.53
2022-08-30T17:08:36.895Z,19.51
2022-08-30T17:19:50.112Z,19.53
2022-08-30T17:30:46.071Z,19.51
2022-08-30T17:41:45.631Z,19.43
2022-08-30T17:52:53.525Z,19.37
2022-08-30T18:03:46.784Z,19.34
2022-08-30T18:14:47.223Z,19.20
2022-08-30T18:25:14.586Z,19.11
2022-08-30T18:35:37.717Z,19.02
2022-08-30T18:46:12.719Z,18.88
2022-08-30T18:56:29.686Z,18.75
2022-08-30T19:06:46.456Z,18.65
2022-08-30T19:17:12.650Z,18.62
2022-08-30T19:27:37.281Z,18.52
2022-08-30T19:38:03.708Z,18.42
2022-08-30T19:48:57.756Z,18.35
2022-08-30T19:59:19.415Z,18.26
2022-08-30T20:10:05.416Z,18.22
2022-08-30T20:20:22.987Z,18.21
2022-08-30T20:24:23.076Z,19.49
2022-08-30T20:31:09.378Z,18.22
2022-08-30T20:42:11.021Z,18.26
2022-08-30T20:52:52.880Z,18.23
2022-08-30T21:03:48.735Z,18.18
2022-08-30T21:14:55.766Z,18.10
2022-08-30T21:25:42.178Z,18.08
2022-08-30T21:36:07.092Z,18.04
2022-08-30T21:46:17.017Z,18.01
2022-08-30T21:56:24.104Z,17.97
2022-08-30T22:06:36.932Z,17.95
2022-08-30T22:16:41.804Z,17.93
2022-08-30T22:28:09.950Z,17.94
2022-08-30T22:38:52.804Z,17.93
2022-08-30T22:49:01.977Z,17.85
2022-08-30T22:59:08.960Z,17.73
2022-08-30T23:09:29.970Z,17.65
2022-08-30T23:19:33.983Z,17.59
2022-08-30T23:30:00.335Z,17.56
2022-08-30T23:40:43.462Z,17.54
2022-08-30T23:51:29.756Z,17.54
